Data for 03/26/2016

Time Sea-Level Adjusted Pressure Absolute Pressure Temperature Relative Humidity Dew Point   
(mb) (inHg) (mb) (inHg) (C) (F) (%) (C) (F)
00:05 1019 30.09 848 25.04 -1.1 30 87 -3 26.6
00:10 1019 30.09 848 25.04 -1.1 30 86 -3.2 26.2
00:15 1019 30.09 848 25.04 -1 30.2 83 -3.5 25.8
00:20 1019 30.09 848 25.04 -0.9 30.3 84 -3.4 25.9
00:25 1019 30.09 848 25.04 -0.9 30.3 84 -3.3 26
00:30 1019 30.09 848 25.04 -1 30.3 83 -3.5 25.7
00:35 1019 30.09 848 25.04 -0.9 30.3 82 -3.6 25.5
00:40 1019 30.09 848 25.04 -0.9 30.4 81 -3.8 25.2
00:45 1019 30.09 848 25.04 -0.9 30.4 80 -3.9 24.9
00:50 1019 30.09 848 25.04 -0.9 30.4 81 -3.8 25.2
00:55 1019 30.09 848 25.04 -0.9 30.4 79 -4 24.8
01:00 1019 30.09 848 25.04 -0.9 30.3 79 -4.1 24.6
01:05 1019 30.09 848 25.04 -1 30.2 80 -4.1 24.6
01:10 1019 30.09 848 25.04 -1.1 30.1 80 -4.1 24.7
01:15 1019 30.09 848 25.04 -1.1 30.1 81 -4 24.9
01:20 1019 30.09 848 25.04 -1.1 30 81 -3.9 24.9
01:25 1019 30.09 848 25.04 -1.2 29.9 82 -3.9 24.9
01:30 1019 30.09 848 25.04 -1.2 29.8 82 -4 24.8
01:35 1019 30.09 848 25.04 -1.2 29.8 82 -3.9 24.9
01:40 1019 30.09 848 25.04 -1.2 29.9 82 -4 24.9
01:45 1019 30.09 848 25.04 -1.2 29.9 82 -3.9 25
01:50 1019 30.09 848 25.04 -1.1 30 82 -3.9 25
01:55 1019 30.09 848 25.04 -1.1 30 82 -3.9 25.1
02:00 1019 30.09 848 25.04 -1.1 30 82 -3.8 25.1
02:05 1019 30.09 848 25.04 -1.1 30.1 82 -3.8 25.1
02:10 1019 30.09 848 25.04 -1.1 30 82 -3.8 25.1
02:15 1019 30.09 848 25.04 -1.1 30 82 -3.8 25.1
02:20 1019 30.09 848 25.04 -1.1 30 82 -3.8 25.2
02:25 1019 30.09 848 25.04 -1.2 29.9 82 -3.8 25.2
02:30 1019 30.09 848 25.04 -1.1 29.9 82 -3.8 25.1
02:35 1019 30.09 848 25.04 -1.1 29.9 83 -3.7 25.3
02:40 1019 30.09 848 25.04 -1.1 30 83 -3.7 25.4
02:45 1019 30.09 848 25.04 -1.1 30 83 -3.6 25.4
02:50 1019 30.09 848 25.04 -1.1 30 84 -3.6 25.6
02:55 1019 30.09 848 25.04 -1.1 30 83 -3.6 25.5
03:00 1019 30.09 848 25.04 -1 30.1 83 -3.7 25.4
03:05 1019 30.09 848 25.04 -1 30.3 81 -3.8 25.2
03:10 1019 30.09 848 25.04 -0.9 30.3 81 -3.8 25.2
03:15 1019 30.09 848 25.04 -0.9 30.4 81 -3.8 25.2
03:20 1019 30.09 848 25.04 -0.8 30.6 80 -3.8 25.1
03:25 1019 30.09 848 25.04 -0.7 30.7 80 -3.8 25.2
03:30 1019 30.09 849 25.07 -0.7 30.7 80 -3.8 25.1
03:35 1019 30.09 849 25.07 -0.7 30.7 80 -3.8 25.1
03:40 1019 30.09 849 25.07 -0.8 30.5 80 -3.8 25.2
03:45 1019 30.09 849 25.07 -0.9 30.5 81 -3.8 25.2
03:50 1019 30.09 849 25.07 -0.9 30.4 81 -3.8 25.2
03:55 1019 30.09 849 25.07 -0.9 30.4 81 -3.8 25.1
04:00 1019 30.09 849 25.07 -0.9 30.3 81 -3.8 25.1
04:05 1020 30.12 849 25.07 -1 30.3 81 -3.9 25
04:10 1020 30.12 849 25.07 -1 30.2 81 -3.9 24.9
04:15 1020 30.12 849 25.07 -1 30.2 80 -4 24.9
04:20 1020 30.12 849 25.07 -1 30.2 80 -4 24.9
04:25 1020 30.12 849 25.07 -1 30.3 80 -4 24.8
04:30 1020 30.12 849 25.07 -1 30.2 81 -3.9 25
04:35 1020 30.12 849 25.07 -1 30.1 81 -3.9 24.9
04:40 1020 30.12 849 25.07 -1 30.1 81 -3.9 24.9
04:45 1020 30.12 849 25.07 -1 30.1 81 -3.9 25
04:50 1020 30.12 849 25.07 -1 30.2 82 -3.8 25.2
04:55 1020 30.12 849 25.07 -1 30.3 82 -3.7 25.4
05:00 1020 30.12 849 25.07 -0.9 30.3 82 -3.6 25.5
05:05 1020 30.12 849 25.07 -1 30.3 83 -3.5 25.6
05:10 1020 30.12 849 25.07 -1 30.2 83 -3.5 25.6
05:15 1020 30.12 849 25.07 -1 30.2 83 -3.5 25.7
05:20 1020 30.12 849 25.07 -1 30.2 84 -3.4 25.8
05:25 1020 30.12 849 25.07 -1 30.2 84 -3.4 25.8
05:30 1020 30.12 849 25.07 -1 30.1 84 -3.4 25.8
05:35 1020 30.12 849 25.07 -1.1 30.1 84 -3.5 25.8
05:40 1020 30.12 849 25.07 -1 30.2 84 -3.4 25.9
05:45 1020 30.12 849 25.07 -1 30.2 84 -3.3 26
05:50 1020 30.12 849 25.07 -1 30.2 85 -3.3 26.1
05:55 1020 30.12 849 25.07 -1.1 30.1 84 -3.5 25.8
06:00 1020 30.12 849 25.07 -1.1 30 84 -3.5 25.7
06:05 1020 30.12 849 25.07 -1.1 30 84 -3.5 25.8
06:10 1020 30.12 849 25.07 -1.1 30.1 84 -3.4 25.9
06:15 1020 30.12 849 25.07 -1 30.1 84 -3.3 26
06:20 1020 30.12 849 25.07 -1 30.1 84 -3.4 25.8
06:25 1020 30.12 849 25.07 -1 30.1 84 -3.5 25.8
06:30 1020 30.12 849 25.07 -1 30.2 83 -3.5 25.7
06:35 1020 30.12 849 25.07 -1 30.1 83 -3.6 25.5
06:40 1020 30.12 849 25.07 -1.1 30.1 83 -3.6 25.6
06:45 1020 30.12 849 25.07 -1.1 30 85 -3.3 26
06:50 1020 30.12 849 25.07 -1.1 30 85 -3.3 26.1
06:55 1020 30.12 849 25.07 -1.2 29.8 86 -3.3 26.1
07:00 1020 30.12 849 25.07 -1.3 29.6 87 -3.2 26.2
07:05 1020 30.12 849 25.07 -1.2 29.8 86 -3.3 26.1
07:10 1020 30.12 849 25.07 -1.2 29.8 87 -3.1 26.5
07:15 1020 30.12 849 25.07 -1.1 29.9 87 -3 26.6
07:20 1020 30.12 849 25.07 -1.1 30 87 -3.1 26.5
07:25 1020 30.12 849 25.07 -1 30.1 86 -3.2 26.3
07:30 1020 30.12 849 25.07 -1.1 30 87 -3 26.6
07:35 1020 30.12 849 25.07 -0.9 30.3 86 -2.9 26.7
07:40 1020 30.12 849 25.07 -0.8 30.5 84 -3.2 26.3
07:45 1020 30.12 849 25.07 -0.8 30.5 83 -3.3 26.1
07:50 1020 30.12 849 25.07 -0.5 31.1 80 -3.5 25.8
07:55 1020 30.12 849 25.07 -0.4 31.3 79 -3.7 25.4
08:00 1020 30.12 849 25.07 -0.1 31.8 78 -3.5 25.7
08:05 1020 30.12 849 25.07 0.2 32.3 76 -3.5 25.6
08:10 1020 30.12 849 25.07 0.2 32.4 76 -3.4 25.8
08:15 1020 30.12 849 25.07 0.4 32.8 75 -3.5 25.7
08:20 1020 30.12 849 25.07 0.6 33.1 72 -3.9 25
08:25 1020 30.12 849 25.07 0.7 33.2 72 -3.8 25.2
08:30 1020 30.12 849 25.07 1.2 34.2 70 -3.7 25.4
08:35 1020 30.12 849 25.07 1.7 35.1 67 -3.8 25.1
08:40 1020 30.12 849 25.07 1.4 34.5 67 -4 24.8
08:45 1020 30.12 849 25.07 1.6 35 67 -3.8 25.2
08:50 1020 30.12 849 25.07 2 35.6 65 -4 24.9
08:55 1020 30.12 849 25.07 1.9 35.3 64 -4.2 24.5
09:00 1020 30.12 849 25.07 1.9 35.3 64 -4.3 24.2
09:05 1020 30.12 849 25.07 2.4 36.3 62 -4.2 24.5
09:10 1020 30.12 849 25.07 3 37.3 60 -4.1 24.6
09:15 1020 30.12 849 25.07 3.5 38.2 54 -4.9 23.2
09:20 1020 30.12 849 25.07 3.5 38.3 58 -4.1 24.7
09:25 1020 30.12 849 25.07 3.5 38.4 59 -3.6 25.5
09:30 1020 30.12 849 25.07 3 37.4 56 -4.8 23.3
09:35 1020 30.12 849 25.07 2.9 37.2 57 -4.9 23.2
09:40 1020 30.12 849 25.07 3 37.5 55 -5.1 22.8
09:45 1020 30.12 849 25.07 2.3 36.1 60 -4.8 23.4
09:50 1020 30.12 849 25.07 2.3 36.1 57 -5.2 22.6
09:55 1020 30.12 849 25.07 2.7 36.8 56 -5.2 22.7
10:00 1020 30.12 849 25.07 2.6 36.6 58 -5 23
10:05 1020 30.12 849 25.07 2.5 36.5 56 -5.5 22.1
10:10 1020 30.12 849 25.07 3.4 38.1 51 -5.8 21.5
10:15 1020 30.12 849 25.07 4 39.1 47 -6.5 20.3
10:20 1019 30.09 849 25.07 3.5 38.3 46 -7.1 19.2
10:25 1019 30.09 849 25.07 3.9 39.1 44 -7.2 19.1
10:30 1019 30.09 848 25.04 3.5 38.4 47 -6.7 19.9
10:35 1019 30.09 848 25.04 4.2 39.5 46 -6.3 20.6
10:40 1019 30.09 848 25.04 5 40.9 42 -6.8 19.8
10:45 1019 30.09 848 25.04 4.6 40.3 44 -6.6 20.1
10:50 1019 30.09 848 25.04 4.6 40.4 46 -6.1 21.1
10:55 1019 30.09 848 25.04 4.7 40.5 45 -6.2 20.9
11:00 1019 30.09 848 25.04 3.7 38.6 47 -6.6 20.2
11:05 1019 30.09 848 25.04 3.5 38.3 46 -6.9 19.6
11:10 1019 30.09 848 25.04 4.4 40 42 -7.5 18.4
11:15 1019 30.09 848 25.04 5 41 44 -6.3 20.7
11:20 1019 30.09 848 25.04 5.2 41.3 42 -6.6 20.2
11:25 1019 30.09 848 25.04 5.5 41.8 44 -5.9 21.4
11:30 1019 30.09 848 25.04 5 41 42 -6.9 19.7
11:35 1019 30.09 848 25.04 4.8 40.7 43 -6.8 19.8
11:40 1019 30.09 848 25.04 5.1 41.1 44 -6.3 20.7
11:45 1019 30.09 848 25.04 5.3 41.5 42 -6.8 19.8
11:50 1019 30.09 848 25.04 5.2 41.3 42 -6.8 19.8
11:55 1019 30.09 848 25.04 5.1 41.2 41 -7 19.4
12:00 1019 30.09 848 25.04 5.2 41.4 41 -7 19.5
12:05 1019 30.09 848 25.04 4.7 40.4 46 -6.1 21
12:10 1019 30.09 848 25.04 5.2 41.4 42 -6.6 20.1
12:15 1018 30.06 848 25.04 4.4 40 47 -5.8 21.5
12:20 1018 30.06 848 25.04 5.9 42.6 40 -6.7 20
12:25 1018 30.06 848 25.04 6.4 43.6 40 -6.3 20.6
12:30 1018 30.06 848 25.04 6.5 43.7 38 -6.8 19.8
12:35 1018 30.06 848 25.04 6.5 43.7 38 -6.9 19.6
12:40 1018 30.06 848 25.04 5.7 42.3 38 -7.3 18.8
12:45 1018 30.06 847 25.01 6 42.9 40 -6.6 20.2
12:50 1018 30.06 847 25.01 5 41 40 -7.4 18.7
12:55 1018 30.06 847 25.01 5.8 42.4 38 -7.6 18.4
13:00 1018 30.06 847 25.01 7.2 45 37 -6.3 20.6
13:05 1018 30.06 847 25.01 7.2 44.9 35 -7.1 19.2
13:10 1018 30.06 847 25.01 7.1 44.7 37 -6.8 19.8
13:15 1018 30.06 847 25.01 6.9 44.5 35 -7.3 18.9
13:20 1018 30.06 847 25.01 7.2 44.9 33 -7.9 17.8
13:25 1018 30.06 847 25.01 7.4 45.2 35 -7 19.4
13:30 1018 30.06 847 25.01 6.5 43.8 36 -7.6 18.2
13:35 1018 30.06 847 25.01 7 44.6 36 -7.2 19
13:40 1018 30.06 847 25.01 7.7 45.8 33 -7.7 18.1
13:45 1018 30.06 847 25.01 7.6 45.6 35 -7 19.4
13:50 1018 30.06 847 25.01 7.6 45.8 34 -7.3 18.9
13:55 1017 30.03 847 25.01 7.8 46 32 -7.8 18
14:00 1017 30.03 847 25.01 7.4 45.3 32 -8.1 17.4
14:05 1017 30.03 847 25.01 7.9 46.2 31 -8.3 17.1
14:10 1017 30.03 847 25.01 7.9 46.3 32 -7.7 18.1
14:15 1017 30.03 847 25.01 8.2 46.8 30 -8.3 17.1
14:20 1017 30.03 846 24.98 8.2 46.8 31 -8.1 17.4
14:25 1017 30.03 846 24.98 8.5 47.3 31 -7.7 18.1
14:30 1017 30.03 846 24.98 8.5 47.3 30 -8.2 17.2
14:35 1017 30.03 846 24.98 8.9 47.9 29 -8 17.6
14:40 1017 30.03 846 24.98 7.6 45.6 32 -8 17.6
14:45 1017 30.03 846 24.98 8.1 46.6 30 -8.3 17.1
14:50 1017 30.03 846 24.98 8.4 47.1 32 -7.5 18.5
14:55 1017 30.03 846 24.98 8.3 47 30 -8.3 17
15:00 1017 30.03 846 24.98 8.9 47.9 30 -7.9 17.8
15:05 1017 30.03 846 24.98 8.4 47 23 -11.7 11
15:10 1017 30.03 846 24.98 8.8 47.8 18 -14.4 6.1
15:15 1017 30.03 846 24.98 8.5 47.3 18 -14.4 6.2
15:20 1017 30.03 846 24.98 8.2 46.7 20 -13.3 8.1
15:25 1017 30.03 846 24.98 7.8 46.1 21 -13 8.7
15:30 1017 30.03 846 24.98 8.1 46.5 21 -13.2 8.2
15:35 1017 30.03 846 24.98 8.4 47.1 22 -12.3 9.8
15:40 1017 30.03 846 24.98 8.7 47.7 19 -13.8 7.2
15:45 1017 30.03 846 24.98 9.2 48.5 20 -12.8 9
15:50 1017 30.03 846 24.98 9 48.3 20 -12.8 9
15:55 1017 30.03 846 24.98 8.5 47.3 20 -13 8.6
16:00 1017 30.03 846 24.98 8.2 46.8 23 -11.9 10.6
16:05 1017 30.03 846 24.98 8.5 47.3 20 -13.1 8.4
16:10 1017 30.03 846 24.98 8.6 47.4 20 -13 8.7
16:15 1017 30.03 846 24.98 8.7 47.6 19 -13.4 7.8
16:20 1017 30.03 846 24.98 8.5 47.3 19 -14 6.8
16:25 1016 30 846 24.98 8.6 47.5 18 -14.6 5.7
16:30 1016 30 846 24.98 8.6 47.4 19 -13.8 7.2
16:35 1016 30 846 24.98 8.6 47.6 19 -13.5 7.6
16:40 1016 30 846 24.98 8.7 47.7 18 -14.1 6.7
16:45 1016 30 846 24.98 8.6 47.4 20 -13.2 8.3
16:50 1016 30 846 24.98 8.9 47.9 20 -13.1 8.5
16:55 1016 30 846 24.98 9.1 48.3 20 -12.7 9.1
17:00 1016 30 846 24.98 9.2 48.6 19 -13.3 8
17:05 1016 30 846 24.98 9.1 48.4 20 -13 8.7
17:10 1016 30 846 24.98 9 48.2 19 -13.3 8.1
17:15 1016 30 846 24.98 8.8 47.9 19 -13.7 7.3
17:20 1016 30 845 24.95 8.9 48 19 -13.3 8.1
17:25 1016 30 845 24.95 8.9 48 19 -13.5 7.7
17:30 1016 30 845 24.95 8.8 47.8 21 -12.7 9.1
17:35 1016 30 845 24.95 8.5 47.4 21 -12.7 9.2
17:40 1016 30 845 24.95 8.2 46.8 20 -13.4 7.9
17:45 1016 30 845 24.95 8 46.4 21 -13.3 8.1
17:50 1016 30 845 24.95 7.9 46.2 22 -12.4 9.6
17:55 1016 30 845 24.95 7.8 46.1 21 -13.1 8.4
18:00 1016 30 845 24.95 7.9 46.2 21 -13.3 8.1
18:05 1016 30 845 24.95 7.8 46 21 -13 8.5
18:10 1016 30 845 24.95 7.7 45.8 22 -12.9 8.8
18:15 1016 30 845 24.95 7.5 45.5 21 -13.5 7.7
18:20 1016 30 845 24.95 7.3 45.1 21 -13.7 7.4
18:25 1016 30 845 24.95 6.9 44.4 22 -13.5 7.6
18:30 1016 30 845 24.95 6.6 43.9 25 -12.2 10
18:35 1016 30 845 24.95 6.4 43.5 27 -11.3 11.6
18:40 1016 30 845 24.95 6.2 43.2 27 -11.4 11.5
18:45 1016 30 845 24.95 6.1 43 28 -11.2 11.8
18:50 1016 30 845 24.95 5.9 42.7 28 -11.1 12.1
18:55 1016 30 845 24.95 5.6 42.1 32 -9.9 14.2
19:00 1016 30 845 24.95 5 41 33 -10.1 13.9
19:05 1016 30 845 24.95 4.9 40.8 33 -10.2 13.6
19:10 1016 30 845 24.95 4.6 40.4 37 -9 15.8
19:15 1016 30 845 24.95 4.4 39.8 36 -9.3 15.2
19:20 1016 30 845 24.95 4.2 39.5 39 -8.6 16.5
19:25 1016 30 845 24.95 4 39.2 37 -9.4 15.1
19:30 1016 30 845 24.95 4.1 39.3 39 -8.8 16.2
19:35 1016 30 845 24.95 3.9 39.1 40 -8.4 16.9
19:40 1016 30 845 24.95 3.7 38.6 40 -8.8 16.1
19:45 1016 30 845 24.95 3.7 38.6 37 -9.6 14.8
19:50 1016 30 845 24.95 4 39.1 35 -10.1 13.8
19:55 1016 30 845 24.95 4.1 39.4 34 -10.3 13.5
20:00 1016 30 845 24.95 4.2 39.5 35 -10 14.1
20:05 1016 30 845 24.95 4 39.2 35 -10.1 13.9
20:10 1016 30 845 24.95 4 39.2 35 -10.2 13.7
20:15 1016 30 845 24.95 4 39.2 35 -10 13.9
20:20 1016 30 846 24.98 3.8 38.9 35 -10.3 13.5
20:25 1016 30 846 24.98 3.9 39 35 -10.1 13.8
20:30 1016 30 846 24.98 3.7 38.6 37 -9.8 14.3
20:35 1017 30.03 846 24.98 3.4 38.2 38 -9.8 14.4
20:40 1017 30.03 846 24.98 3.4 38.1 37 -9.9 14.3
20:45 1017 30.03 846 24.98 3.4 38.1 36 -10.3 13.5
20:50 1017 30.03 846 24.98 3.4 38.2 35 -10.5 13
20:55 1017 30.03 846 24.98 3.5 38.2 36 -10.3 13.4
21:00 1017 30.03 846 24.98 3.3 37.9 37 -10.1 13.8
21:05 1017 30.03 846 24.98 3.1 37.6 38 -10 13.9
21:10 1017 30.03 846 24.98 3 37.4 38 -10.1 13.9
21:15 1017 30.03 846 24.98 2.9 37.2 38 -10.2 13.6
21:20 1017 30.03 846 24.98 2.9 37.2 38 -10.2 13.7
21:25 1017 30.03 846 24.98 2.8 37 40 -9.5 15
21:30 1017 30.03 846 24.98 2.5 36.5 42 -9.2 15.4
21:35 1017 30.03 846 24.98 2.3 36.1 42 -9.4 15.1
21:40 1017 30.03 846 24.98 2.1 35.9 43 -9 15.7
21:45 1017 30.03 846 24.98 2 35.5 44 -9.1 15.6
21:50 1017 30.03 846 24.98 1.9 35.4 44 -9.1 15.7
21:55 1017 30.03 846 24.98 1.8 35.3 45 -9 15.9
22:00 1017 30.03 846 24.98 1.8 35.2 45 -9 15.8
22:05 1017 30.03 846 24.98 1.7 35.1 45 -9 15.9
22:10 1017 30.03 846 24.98 1.7 35 46 -8.7 16.3
22:15 1017 30.03 846 24.98 1.8 35.2 44 -9.1 15.5
22:20 1017 30.03 846 24.98 1.8 35.3 45 -8.8 16.1
22:25 1017 30.03 846 24.98 1.7 35 46 -8.7 16.3
22:30 1017 30.03 846 24.98 1.6 34.8 46 -8.8 16.2
22:35 1017 30.03 846 24.98 1.6 34.9 45 -9.1 15.7
22:40 1017 30.03 846 24.98 1.8 35.2 46 -8.5 16.6
22:45 1017 30.03 846 24.98 1.6 34.9 46 -8.8 16.1
22:50 1016 30 846 24.98 1.4 34.5 45 -9.2 15.4
22:55 1016 30 846 24.98 1.5 34.8 46 -8.9 15.9
23:00 1016 30 846 24.98 1.5 34.8 46 -8.8 16.1
23:05 1016 30 846 24.98 1.6 34.8 44 -9.3 15.3
23:10 1016 30 846 24.98 1.6 34.9 45 -9.2 15.4
23:15 1016 30 846 24.98 1.4 34.5 45 -9.3 15.2
23:20 1016 30 846 24.98 1.3 34.4 45 -9.5 14.9
23:25 1016 30 846 24.98 1.3 34.4 46 -9.1 15.5
23:30 1016 30 846 24.98 1 33.8 48 -8.8 16.2
23:35 1016 30 846 24.98 0.8 33.5 51 -8.3 17
23:40 1016 30 846 24.98 0.7 33.3 50 -8.5 16.6
23:45 1016 30 846 24.98 0.8 33.4 51 -8.2 17.3
23:50 1016 30 846 24.98 0.8 33.4 50 -8.6 16.6
23:55 1016 30 846 24.98 0.9 33.6 49 -8.7 16.3
24:00 1016 30 846 24.98 1 33.7 49 -8.6 16.4